createdAt,value
2023-03-01T00:01:39.666Z,22.80
2023-03-01T00:04:06.808Z,24.70
2023-03-01T00:06:34.084Z,24.45
2023-03-01T00:09:01.372Z,22.83
2023-03-01T00:11:29.723Z,23.52
2023-03-01T00:13:58.117Z,25.35
2023-03-01T00:16:35.917Z,23.20
2023-03-01T00:19:03.672Z,25.50
2023-03-01T00:21:30.916Z,23.08
2023-03-01T00:23:58.703Z,23.58
2023-03-01T00:26:27.449Z,22.10
2023-03-01T00:28:56.375Z,23.25
2023-03-01T00:31:24.697Z,26.55
2023-03-01T00:33:57.987Z,22.80
2023-03-01T00:36:26.551Z,24.70
2023-03-01T00:38:53.751Z,26.13
2023-03-01T00:41:21.515Z,23.08
2023-03-01T00:43:48.659Z,26.88
2023-03-01T00:46:20.033Z,26.42
2023-03-01T00:48:47.227Z,24.38
2023-03-01T00:51:14.349Z,26.73
2023-03-01T00:53:42.000Z,24.75
2023-03-01T00:56:10.327Z,27.33
2023-03-01T00:58:37.582Z,22.33
2023-03-01T01:01:18.003Z,25.95
2023-03-01T01:04:06.140Z,29.73
2023-03-01T01:06:35.442Z,28.77
2023-03-01T01:09:03.430Z,23.60
2023-03-01T01:11:31.117Z,23.50
2023-03-01T01:13:58.633Z,23.38
2023-03-01T01:16:27.127Z,25.30
2023-03-01T01:18:54.840Z,25.10
2023-03-01T01:21:23.724Z,25.75
2023-03-01T01:23:51.333Z,27.80
2023-03-01T01:26:20.553Z,23.33
2023-03-01T01:28:47.934Z,25.10
2023-03-01T01:31:15.178Z,28.60
2023-03-01T01:33:42.701Z,25.02
2023-03-01T01:36:10.360Z,27.55
2023-03-01T01:38:38.315Z,25.45
2023-03-01T01:41:06.887Z,25.65
2023-03-01T01:43:38.843Z,25.88
2023-03-01T01:46:17.306Z,24.38
2023-03-01T01:48:46.412Z,22.80
2023-03-01T01:51:15.633Z,24.75
2023-03-01T01:53:44.591Z,27.45
2023-03-01T01:56:13.404Z,24.67
2023-03-01T01:58:41.259Z,24.50
2023-03-01T02:01:09.201Z,24.20
2023-03-01T02:03:43.089Z,22.02
2023-03-01T02:06:13.507Z,27.75
2023-03-01T02:08:42.599Z,23.10
2023-03-01T02:11:10.623Z,26.10
2023-03-01T02:13:37.873Z,23.27
2023-03-01T02:16:12.477Z,24.63
2023-03-01T02:18:40.704Z,25.95
2023-03-01T02:21:34.173Z,26.15
2023-03-01T02:24:03.059Z,23.92
2023-03-01T02:26:43.986Z,26.90
2023-03-01T02:29:11.241Z,28.67
2023-03-01T02:31:44.751Z,26.65
2023-03-01T02:34:19.426Z,23.98
2023-03-01T02:36:51.290Z,27.90
2023-03-01T02:39:42.949Z,27.30
2023-03-01T02:42:12.833Z,25.15
2023-03-01T02:44:40.282Z,22.70
2023-03-01T02:47:07.800Z,24.73
2023-03-01T02:49:36.557Z,24.17
2023-03-01T02:52:06.587Z,24.85
2023-03-01T02:54:38.274Z,26.58
2023-03-01T02:57:06.628Z,20.92
2023-03-01T02:59:40.177Z,22.65
2023-03-01T03:02:08.435Z,26.30
2023-03-01T03:04:36.200Z,25.10
2023-03-01T03:07:03.383Z,29.33
2023-03-01T03:09:30.618Z,23.25
2023-03-01T03:11:57.819Z,22.85
2023-03-01T03:14:24.943Z,22.55
2023-03-01T03:16:52.195Z,26.08
2023-03-01T03:19:20.089Z,23.90
2023-03-01T03:21:47.706Z,23.45
2023-03-01T03:24:14.875Z,25.67
2023-03-01T03:26:42.002Z,23.38
2023-03-01T03:29:09.142Z,28.92
2023-03-01T03:31:36.360Z,22.20
2023-03-01T03:34:03.591Z,27.00
2023-03-01T03:36:30.934Z,25.35
2023-03-01T03:38:58.222Z,24.35
2023-03-01T03:41:25.392Z,23.58
2023-03-01T03:43:52.575Z,20.73
2023-03-01T03:46:19.763Z,23.08
2023-03-01T03:48:47.411Z,27.88
2023-03-01T03:51:15.512Z,26.60
2023-03-01T03:53:42.855Z,24.15
2023-03-01T03:56:10.034Z,24.08
2023-03-01T03:58:37.237Z,25.55
2023-03-01T04:01:04.502Z,26.13
2023-03-01T04:03:33.065Z,25.60
2023-03-01T04:06:01.620Z,30.02
2023-03-01T04:08:29.129Z,25.40
2023-03-01T04:11:01.532Z,31.27
2023-03-01T04:13:28.750Z,26.55
2023-03-01T04:15:56.415Z,25.23
2023-03-01T04:18:25.578Z,28.40
2023-03-01T04:20:56.402Z,24.55
2023-03-01T04:23:23.753Z,25.48
2023-03-01T04:25:58.196Z,25.88
2023-03-01T04:28:27.388Z,29.80
2023-03-01T04:30:55.261Z,25.80
2023-03-01T04:33:22.738Z,28.80
2023-03-01T04:35:50.416Z,24.67
2023-03-01T04:38:18.629Z,24.70
2023-03-01T04:40:46.250Z,26.25
2023-03-01T04:43:16.829Z,25.20
2023-03-01T04:45:44.142Z,25.52
2023-03-01T04:48:11.501Z,27.65
2023-03-01T04:50:38.677Z,28.90
2023-03-01T04:53:05.804Z,27.38
2023-03-01T04:55:32.970Z,26.70
2023-03-01T04:58:00.275Z,27.42
2023-03-01T05:00:27.641Z,25.80
2023-03-01T05:02:59.004Z,26.50
2023-03-01T05:05:26.733Z,25.67
2023-03-01T05:07:54.921Z,25.55
2023-03-01T05:10:22.277Z,26.38
2023-03-01T05:12:49.514Z,27.30
2023-03-01T05:15:16.671Z,26.27
2023-03-01T05:17:43.810Z,24.90
2023-03-01T05:20:11.617Z,26.00
2023-03-01T05:22:39.574Z,25.42
2023-03-01T05:25:08.186Z,28.15
2023-03-01T05:27:35.790Z,27.45
2023-03-01T05:30:14.245Z,25.25
2023-03-01T05:32:43.987Z,24.83
2023-03-01T05:35:14.172Z,29.00
2023-03-01T05:37:45.054Z,30.13
2023-03-01T05:40:16.744Z,33.00
2023-03-01T05:42:47.944Z,26.20
2023-03-01T05:45:15.466Z,27.52
2023-03-01T05:47:46.117Z,34.78
2023-03-01T05:50:13.489Z,33.17
2023-03-01T05:52:41.570Z,28.10
2023-03-01T05:55:08.932Z,27.92
2023-03-01T05:57:36.216Z,27.63
2023-03-01T06:00:04.071Z,28.88
2023-03-01T06:02:31.213Z,28.52
2023-03-01T06:04:58.530Z,26.42
2023-03-01T06:07:25.735Z,30.23
2023-03-01T06:09:52.911Z,29.27
2023-03-01T06:12:20.105Z,24.58
2023-03-01T06:14:48.864Z,26.27
2023-03-01T06:17:16.021Z,27.20
2023-03-01T06:19:43.154Z,26.15
2023-03-01T06:22:10.368Z,28.67
2023-03-01T06:24:37.738Z,24.98
2023-03-01T06:27:04.913Z,29.83
2023-03-01T06:29:32.471Z,27.90
2023-03-01T06:31:59.593Z,26.13
2023-03-01T06:34:26.789Z,27.10
2023-03-01T06:36:53.971Z,26.73
2023-03-01T06:39:22.271Z,27.92
2023-03-01T06:41:49.481Z,28.08
2023-03-01T06:44:16.672Z,26.85
2023-03-01T06:46:43.811Z,27.50
2023-03-01T06:49:10.994Z,27.38
2023-03-01T06:51:38.456Z,28.73
2023-03-01T06:54:06.583Z,27.63
2023-03-01T06:56:34.289Z,30.42
2023-03-01T06:59:01.663Z,27.83
2023-03-01T07:01:28.843Z,27.00
2023-03-01T07:03:56.102Z,29.65
2023-03-01T07:06:23.775Z,29.50
2023-03-01T07:08:51.282Z,29.50
2023-03-01T07:11:18.518Z,29.77
2023-03-01T07:13:45.706Z,27.30
2023-03-01T07:16:12.987Z,29.00
2023-03-01T07:18:40.190Z,30.52
2023-03-01T07:21:08.420Z,31.90
2023-03-01T07:23:35.971Z,32.40
2023-03-01T07:26:03.246Z,27.95
2023-03-01T07:28:31.340Z,29.95
2023-03-01T07:31:02.631Z,31.30
2023-03-01T07:33:29.802Z,29.58
2023-03-01T07:36:01.221Z,29.42
2023-03-01T07:38:28.706Z,32.88
2023-03-01T07:40:59.897Z,29.88
2023-03-01T07:43:27.082Z,34.33
2023-03-01T07:45:54.345Z,31.05
2023-03-01T07:48:21.480Z,26.40
2023-03-01T07:50:48.672Z,31.00
2023-03-01T07:53:15.858Z,30.23
2023-03-01T07:55:43.057Z,29.52
2023-03-01T07:58:10.236Z,31.23
2023-03-01T08:00:37.423Z,28.48
2023-03-01T08:03:04.565Z,30.48
2023-03-01T08:05:31.797Z,29.98
2023-03-01T08:07:58.955Z,32.08
2023-03-01T08:10:26.209Z,25.52
2023-03-01T08:12:53.991Z,30.13
2023-03-01T08:15:21.301Z,28.30
2023-03-01T08:17:50.952Z,30.20
2023-03-01T08:20:19.886Z,28.33
2023-03-01T08:22:47.314Z,31.27
2023-03-01T08:25:14.434Z,27.02
2023-03-01T08:27:41.600Z,28.95
2023-03-01T08:30:09.087Z,27.40
2023-03-01T08:32:40.439Z,27.77
2023-03-01T08:35:07.835Z,24.23
2023-03-01T08:37:34.943Z,31.60
2023-03-01T08:40:02.318Z,30.48
2023-03-01T08:42:29.451Z,27.48
2023-03-01T08:44:57.741Z,25.48
2023-03-01T08:47:25.005Z,29.75
2023-03-01T08:49:52.408Z,27.92
2023-03-01T08:52:19.573Z,27.67
2023-03-01T08:54:46.753Z,29.02
2023-03-01T08:57:13.974Z,32.13
2023-03-01T08:59:41.629Z,31.55
2023-03-01T09:02:13.675Z,26.20
2023-03-01T09:04:41.264Z,28.10
2023-03-01T09:07:09.057Z,27.48
2023-03-01T09:09:36.863Z,28.75
2023-03-01T09:12:04.323Z,27.85
2023-03-01T09:14:31.577Z,27.08
2023-03-01T09:16:58.803Z,28.98
2023-03-01T09:19:27.403Z,26.70
2023-03-01T09:21:54.785Z,32.10
2023-03-01T09:24:22.930Z,28.95
2023-03-01T09:26:51.660Z,31.27
2023-03-01T09:29:18.937Z,30.33
2023-03-01T09:31:46.207Z,31.00
2023-03-01T09:34:16.316Z,26.48
2023-03-01T09:36:43.588Z,29.58
2023-03-01T09:39:10.714Z,31.33
2023-03-01T09:41:49.118Z,28.98
2023-03-01T09:44:19.155Z,27.70
2023-03-01T09:46:46.936Z,31.02
2023-03-01T09:49:19.244Z,27.60
2023-03-01T09:52:02.794Z,27.77
2023-03-01T09:54:30.044Z,29.17
2023-03-01T09:57:08.537Z,32.58
2023-03-01T09:59:38.828Z,24.90
2023-03-01T10:02:21.804Z,30.15
2023-03-01T10:04:50.982Z,27.48
2023-03-01T10:07:23.935Z,27.45
2023-03-01T10:09:51.115Z,27.55
2023-03-01T10:12:24.391Z,27.80
2023-03-01T10:15:15.757Z,27.13
2023-03-01T10:17:58.285Z,31.50
2023-03-01T10:20:32.443Z,32.50
2023-03-01T10:23:00.022Z,31.83
2023-03-01T10:25:33.397Z,32.10
2023-03-01T10:28:05.786Z,29.48
2023-03-01T10:30:44.927Z,31.58
2023-03-01T10:33:22.283Z,27.38
2023-03-01T10:35:49.605Z,26.42
2023-03-01T10:38:17.508Z,33.45
2023-03-01T10:40:58.772Z,26.35
2023-03-01T10:43:26.812Z,28.20
2023-03-01T10:45:54.291Z,32.85
2023-03-01T10:48:27.163Z,28.70
2023-03-01T10:51:00.539Z,26.40
2023-03-01T10:53:30.530Z,28.67
2023-03-01T10:56:17.958Z,26.45
2023-03-01T10:59:05.086Z,26.67
2023-03-01T11:01:34.358Z,28.63
2023-03-01T11:04:07.881Z,29.70
2023-03-01T11:06:39.032Z,29.13
2023-03-01T11:09:23.465Z,31.30
2023-03-01T11:11:54.375Z,29.10
2023-03-01T11:14:28.844Z,27.42
2023-03-01T11:17:03.743Z,30.35
2023-03-01T11:22:04.105Z,27.00
2023-03-01T11:24:39.556Z,29.70
2023-03-01T11:27:10.632Z,27.52
2023-03-01T11:29:48.729Z,35.28
2023-03-01T11:32:17.094Z,29.17
2023-03-01T11:34:44.369Z,30.85
2023-03-01T11:37:25.928Z,29.27
2023-03-01T11:39:57.724Z,32.08
2023-03-01T11:42:27.961Z,28.67
2023-03-01T11:44:57.074Z,28.00
2023-03-01T11:47:24.333Z,30.20
2023-03-01T11:49:51.599Z,26.15
2023-03-01T11:52:23.141Z,27.85
2023-03-01T11:54:56.420Z,25.70
2023-03-01T11:57:42.468Z,27.52
2023-03-01T12:00:22.572Z,30.63
2023-03-01T12:03:01.701Z,27.67
2023-03-01T12:05:47.846Z,30.45
2023-03-01T12:08:21.847Z,35.53
2023-03-01T12:10:52.178Z,28.52
2023-03-01T12:13:19.348Z,28.83
2023-03-01T12:15:46.456Z,23.88
2023-03-01T12:18:22.816Z,28.88
2023-03-01T12:21:01.984Z,30.15
2023-03-01T12:23:35.357Z,28.33
2023-03-01T12:26:05.278Z,26.10
2023-03-01T12:28:38.661Z,28.90
2023-03-01T12:31:08.601Z,32.42
2023-03-01T12:33:46.929Z,29.23
2023-03-01T12:36:23.248Z,28.92
2023-03-01T12:38:51.353Z,31.02
2023-03-01T12:41:40.146Z,27.98
2023-03-01T12:44:22.246Z,28.23
2023-03-01T12:47:01.359Z,30.95
2023-03-01T12:49:30.560Z,31.88
2023-03-01T12:52:17.985Z,27.15
2023-03-01T12:54:46.853Z,28.80
2023-03-01T12:57:18.469Z,29.23
2023-03-01T13:00:11.507Z,29.05
2023-03-01T13:02:38.727Z,28.23
2023-03-01T13:05:06.617Z,26.75
2023-03-01T13:07:46.548Z,29.98
2023-03-01T13:10:21.736Z,29.08
2023-03-01T13:12:52.712Z,27.50
2023-03-01T13:15:25.734Z,30.15
2023-03-01T13:17:54.344Z,28.83
2023-03-01T13:20:22.993Z,32.13
2023-03-01T13:23:02.112Z,31.17
2023-03-01T13:25:34.626Z,27.85
2023-03-01T13:28:27.277Z,29.77
2023-03-01T13:30:54.469Z,30.90
2023-03-01T13:33:27.523Z,28.52
2023-03-01T13:35:59.690Z,29.13
2023-03-01T13:38:42.113Z,28.65
2023-03-01T13:41:09.950Z,27.00
2023-03-01T13:43:38.392Z,29.20
2023-03-01T13:46:13.169Z,29.60
2023-03-01T13:51:10.590Z,29.20
2023-03-01T13:53:40.869Z,30.40
2023-03-01T13:56:13.715Z,30.15
2023-03-01T13:58:51.600Z,30.48
2023-03-01T14:01:39.578Z,28.27
2023-03-01T14:04:26.673Z,29.75
2023-03-01T14:06:53.877Z,30.90
2023-03-01T14:09:27.231Z,31.42
2023-03-01T14:12:06.232Z,29.63
2023-03-01T14:14:33.378Z,32.92
2023-03-01T14:17:18.748Z,27.67
2023-03-01T14:22:29.426Z,32.95
2023-03-01T14:25:01.225Z,30.17
2023-03-01T14:27:30.620Z,31.83
2023-03-01T14:30:16.075Z,29.02
2023-03-01T14:32:43.222Z,29.52
2023-03-01T14:35:27.794Z,28.90
2023-03-01T14:38:02.848Z,27.80
2023-03-01T14:40:35.589Z,30.08
2023-03-01T14:43:10.196Z,25.02
2023-03-01T14:45:37.377Z,29.33
2023-03-01T14:48:05.987Z,28.05
2023-03-01T14:50:35.231Z,28.50
2023-03-01T14:53:06.430Z,33.58
2023-03-01T14:55:38.884Z,31.20
2023-03-01T14:58:06.833Z,28.33
2023-03-01T15:00:35.438Z,26.27
2023-03-01T15:03:04.947Z,30.65
2023-03-01T15:05:33.824Z,27.33
2023-03-01T15:08:03.148Z,25.77
2023-03-01T15:10:31.753Z,26.42
2023-03-01T15:13:11.654Z,25.05
2023-03-01T15:16:01.598Z,27.63
2023-03-01T15:18:29.849Z,29.50
2023-03-01T15:20:57.582Z,26.70
2023-03-01T15:23:29.094Z,23.45
2023-03-01T15:25:57.602Z,29.33
2023-03-01T15:28:26.922Z,26.40
2023-03-01T15:31:02.052Z,26.83
2023-03-01T15:33:31.008Z,30.00
2023-03-01T15:35:59.750Z,29.48
2023-03-01T15:38:28.005Z,29.17
2023-03-01T15:40:55.650Z,28.27
2023-03-01T15:43:41.532Z,26.73
2023-03-01T15:46:18.280Z,27.42
2023-03-01T15:48:50.451Z,24.70
2023-03-01T15:51:17.931Z,27.50
2023-03-01T15:53:54.606Z,26.30
2023-03-01T15:56:22.229Z,25.42
2023-03-01T15:58:49.496Z,25.10
2023-03-01T16:01:18.436Z,24.98
2023-03-01T16:03:45.946Z,28.67
2023-03-01T16:06:13.349Z,28.27
2023-03-01T16:08:41.418Z,26.65
2023-03-01T16:11:15.303Z,27.08
2023-03-01T16:13:43.550Z,25.90
2023-03-01T16:16:14.565Z,25.73
2023-03-01T16:18:41.805Z,26.05
2023-03-01T16:21:12.394Z,28.92
2023-03-01T16:23:39.527Z,23.15
2023-03-01T16:26:06.633Z,22.10
2023-03-01T16:28:34.427Z,27.27
2023-03-01T16:31:02.387Z,25.45
2023-03-01T16:33:33.917Z,24.80
2023-03-01T16:36:03.165Z,24.83
2023-03-01T16:38:30.787Z,24.40
2023-03-01T16:40:57.941Z,26.90
2023-03-01T16:43:25.322Z,27.08
2023-03-01T16:45:52.548Z,25.23
2023-03-01T16:48:19.893Z,27.45
2023-03-01T16:50:47.058Z,26.98
2023-03-01T16:53:14.385Z,28.83
2023-03-01T16:55:46.362Z,26.95
2023-03-01T16:58:13.828Z,25.77
2023-03-01T17:00:41.160Z,25.02
2023-03-01T17:03:08.321Z,28.05
2023-03-01T17:05:35.470Z,27.70
2023-03-01T17:08:02.690Z,33.33
2023-03-01T17:10:30.054Z,24.67
2023-03-01T17:12:57.216Z,35.85
2023-03-01T17:15:24.880Z,35.10
2023-03-01T17:17:52.297Z,34.33
2023-03-01T17:20:19.691Z,37.33
2023-03-01T17:22:46.833Z,38.08
2023-03-01T17:25:14.059Z,33.10
2023-03-01T17:27:41.843Z,36.05
2023-03-01T17:30:10.001Z,41.25
2023-03-01T17:32:37.307Z,36.13
2023-03-01T17:35:05.000Z,36.70
2023-03-01T17:37:32.192Z,38.17
2023-03-01T17:39:59.343Z,38.92
2023-03-01T17:42:26.466Z,43.75
2023-03-01T17:44:53.614Z,44.90
2023-03-01T17:47:21.208Z,39.67
2023-03-01T17:49:48.370Z,38.47
2023-03-01T17:52:15.511Z,41.95
2023-03-01T17:54:42.674Z,40.78
2023-03-01T17:57:09.783Z,39.60
2023-03-01T17:59:37.682Z,39.78
2023-03-01T18:02:05.014Z,35.45
2023-03-01T18:04:32.573Z,40.83
2023-03-01T18:07:00.076Z,40.03
2023-03-01T18:09:28.298Z,38.17
2023-03-01T18:11:55.432Z,37.67
2023-03-01T18:14:22.633Z,43.45
2023-03-01T18:16:49.900Z,39.30
2023-03-01T18:19:17.158Z,37.90
2023-03-01T18:21:44.597Z,39.25
2023-03-01T18:24:11.815Z,38.45
2023-03-01T18:26:40.213Z,43.40
2023-03-01T18:29:08.278Z,41.90
2023-03-01T18:31:35.637Z,41.05
2023-03-01T18:34:02.895Z,39.50
2023-03-01T18:36:31.209Z,36.95
2023-03-01T18:38:58.766Z,37.55
2023-03-01T18:41:27.060Z,41.47
2023-03-01T18:43:55.918Z,38.33
2023-03-01T18:46:23.775Z,39.22
2023-03-01T18:48:52.380Z,36.97
2023-03-01T18:51:20.823Z,39.92
2023-03-01T18:53:49.057Z,40.83
2023-03-01T18:56:16.304Z,40.65
2023-03-01T18:58:43.588Z,40.45
2023-03-01T19:01:18.120Z,38.28
2023-03-01T19:03:45.650Z,41.67
2023-03-01T19:06:12.866Z,43.83
2023-03-01T19:08:42.061Z,41.28
2023-03-01T19:11:09.653Z,37.83
2023-03-01T19:13:38.349Z,42.65
2023-03-01T19:16:07.627Z,41.22
2023-03-01T19:18:35.206Z,41.60
2023-03-01T19:21:04.220Z,43.50
2023-03-01T19:23:34.814Z,44.03
2023-03-01T19:26:09.388Z,40.05
2023-03-01T19:28:39.238Z,44.53
2023-03-01T19:31:08.104Z,44.55
2023-03-01T19:33:36.155Z,45.85
2023-03-01T19:36:04.632Z,45.50
2023-03-01T19:38:31.834Z,43.92
2023-03-01T19:40:59.137Z,50.28
2023-03-01T19:43:26.300Z,47.95
2023-03-01T19:45:54.188Z,45.33
2023-03-01T19:48:21.991Z,46.63
2023-03-01T19:50:49.598Z,46.38
2023-03-01T19:53:17.088Z,46.33
2023-03-01T19:55:44.282Z,54.17
2023-03-01T19:58:11.938Z,51.63
2023-03-01T20:00:40.038Z,60.13
2023-03-01T20:03:07.542Z,53.03
2023-03-01T20:05:35.623Z,56.38
2023-03-01T20:08:03.263Z,54.95
2023-03-01T20:10:31.367Z,50.70
2023-03-01T20:12:58.618Z,47.90
2023-03-01T20:15:25.873Z,53.85
2023-03-01T20:17:53.014Z,52.30
2023-03-01T20:20:20.332Z,50.45
2023-03-01T20:22:47.562Z,46.90
2023-03-01T20:25:14.704Z,56.22
2023-03-01T20:27:41.931Z,47.55
2023-03-01T20:30:09.596Z,54.67
2023-03-01T20:32:36.836Z,44.13
2023-03-01T20:35:04.094Z,50.75
2023-03-01T20:37:31.310Z,50.38
2023-03-01T20:39:58.430Z,48.47
2023-03-01T20:42:25.654Z,46.15
2023-03-01T20:44:52.820Z,47.72
2023-03-01T20:47:21.041Z,48.83
2023-03-01T20:49:50.832Z,44.40
2023-03-01T20:52:18.422Z,39.65
2023-03-01T20:54:45.593Z,47.38
2023-03-01T20:57:12.837Z,39.83
2023-03-01T20:59:40.174Z,40.33
2023-03-01T21:02:07.335Z,38.53
2023-03-01T21:04:34.463Z,37.97
2023-03-01T21:07:01.633Z,31.83
2023-03-01T21:09:28.756Z,36.58
2023-03-01T21:11:55.900Z,31.77
2023-03-01T21:14:23.702Z,35.65
2023-03-01T21:16:51.266Z,34.00
2023-03-01T21:19:18.444Z,33.53
2023-03-01T21:21:45.625Z,33.17
2023-03-01T21:24:12.832Z,31.77
2023-03-01T21:26:40.037Z,30.05
2023-03-01T21:29:07.228Z,28.83
2023-03-01T21:31:35.611Z,33.53
2023-03-01T21:34:04.398Z,33.30
2023-03-01T21:36:32.406Z,32.40
2023-03-01T21:39:04.247Z,31.67
2023-03-01T21:41:32.745Z,30.55
2023-03-01T21:44:00.983Z,28.45
2023-03-01T21:46:30.730Z,35.38
2023-03-01T21:48:58.723Z,29.77
2023-03-01T21:51:27.361Z,30.63
2023-03-01T21:53:59.491Z,30.80
2023-03-01T21:56:29.416Z,30.05
2023-03-01T21:58:57.807Z,29.85
2023-03-01T22:01:27.158Z,29.80
2023-03-01T22:03:55.163Z,30.42
2023-03-01T22:06:24.515Z,35.25
2023-03-01T22:08:56.747Z,31.67
2023-03-01T22:11:26.044Z,29.13
2023-03-01T22:13:54.561Z,29.40
2023-03-01T22:16:23.705Z,30.35
2023-03-01T22:18:51.194Z,32.47
2023-03-01T22:21:18.893Z,28.05
2023-03-01T22:23:46.603Z,33.47
2023-03-01T22:26:27.241Z,36.17
2023-03-01T22:28:55.556Z,32.75
2023-03-01T22:31:23.235Z,28.17
2023-03-01T22:33:50.752Z,31.27
2023-03-01T22:36:17.884Z,30.83
2023-03-01T22:38:45.206Z,31.70
2023-03-01T22:41:12.394Z,32.13
2023-03-01T22:43:39.521Z,28.95
2023-03-01T22:46:13.916Z,29.70
2023-03-01T22:48:41.403Z,25.73
2023-03-01T22:51:10.105Z,30.95
2023-03-01T22:53:37.696Z,35.35
2023-03-01T22:56:11.912Z,28.58
2023-03-01T22:58:39.080Z,28.42
2023-03-01T23:01:16.771Z,36.13
2023-03-01T23:03:44.164Z,29.75
2023-03-01T23:06:11.773Z,33.28
2023-03-01T23:08:39.061Z,31.52
2023-03-01T23:11:10.128Z,32.55
2023-03-01T23:13:37.345Z,39.90
2023-03-01T23:16:04.661Z,30.83
2023-03-01T23:18:31.796Z,31.92
2023-03-01T23:20:59.098Z,35.47
2023-03-01T23:23:26.231Z,32.40
2023-03-01T23:25:54.671Z,31.05
2023-03-01T23:28:21.948Z,29.50
2023-03-01T23:31:01.565Z,31.23
2023-03-01T23:33:29.116Z,31.60
2023-03-01T23:35:56.342Z,33.55
2023-03-01T23:38:23.551Z,30.95
2023-03-01T23:40:50.733Z,35.95
2023-03-01T23:43:17.870Z,35.40
2023-03-01T23:45:45.249Z,36.47
2023-03-01T23:48:15.608Z,33.25
2023-03-01T23:50:42.974Z,30.85
2023-03-01T23:53:14.289Z,31.05
2023-03-01T23:55:45.330Z,34.08
2023-03-01T23:58:12.650Z,32.60
